Time;durP1;ratioP1;P1;durP2;ratioP2;P2;SDS_P1;SDS_P2;PMS_P1;PMS_P2;Temp;Humidity;BMP_temperature;BMP_pressure;BME280_temperature;BME280_humidity;BME280_pressure;Samples;Min_cycle;Max_cycle;Signal;HPM_P1;HPM_P2
2021/12/15 00:00:39;;;;;;;30.75;7.60;;;10.70;99.90;;;;;;6280868;22;20114;-83
2021/12/15 00:03:06;;;;;;;19.27;6.50;;;13.80;99.90;;;;;;6280831;22;20011;-84
2021/12/15 00:05:33;;;;;;;23.00;6.28;;;12.20;99.90;;;;;;6280765;22;20038;-83
2021/12/15 00:08:02;;;;;;;30.73;6.55;;;12.30;99.90;;;;;;6255215;22;20741;-83
2021/12/15 00:10:29;;;;;;;29.40;6.75;;;11.90;99.90;;;;;;6281361;22;20067;-83
2021/12/15 00:12:56;;;;;;;21.63;6.10;;;11.60;99.90;;;;;;6255464;22;20337;-83
2021/12/15 00:15:23;;;;;;;22.58;6.70;;;11.80;99.90;;;;;;6255162;22;20015;-83
2021/12/15 00:17:50;;;;;;;29.10;6.38;;;10.70;99.90;;;;;;6254662;22;20437;-83
2021/12/15 00:20:17;;;;;;;31.30;7.88;;;10.40;99.90;;;;;;6280443;22;20021;-83
2021/12/15 00:22:44;;;;;;;27.65;7.72;;;11.60;99.90;;;;;;6169999;23;20074;-83
2021/12/15 00:25:12;;;;;;;26.35;7.80;;;12.30;99.90;;;;;;6179785;23;20017;-83
2021/12/15 00:27:38;;;;;;;27.80;7.00;;;11.30;99.90;;;;;;6180004;23;20021;-83
2021/12/15 00:30:06;;;;;;;26.20;7.03;;;12.00;99.90;;;;;;6155421;23;20017;-83
2021/12/15 00:32:32;;;;;;;20.08;5.97;;;12.10;99.90;;;;;;6180265;23;20019;-83
2021/12/15 00:34:58;;;;;;;23.48;7.38;;;11.10;99.90;;;;;;6180071;23;20096;-83
2021/12/15 00:37:24;;;;;;;26.23;6.55;;;11.00;99.90;;;;;;6179989;23;20391;-83
2021/12/15 00:39:49;;;;;;;18.02;5.68;;;10.50;99.90;;;;;;6179974;23;20028;-83
2021/12/15 00:42:16;;;;;;;24.23;7.18;;;10.80;99.90;;;;;;6179979;23;20011;-83
2021/12/15 00:44:43;;;;;;;20.75;6.55;;;11.20;99.90;;;;;;6155272;23;20017;-83
2021/12/15 00:47:10;;;;;;;23.00;7.20;;;12.10;99.90;;;;;;6180119;23;20550;-83
2021/12/15 00:49:37;;;;;;;25.83;6.88;;;11.50;99.90;;;;;;6155232;23;20644;-83
2021/12/15 00:52:03;;;;;;;20.88;5.78;;;11.30;99.90;;;;;;6179947;23;20092;-83
2021/12/15 00:54:30;;;;;;;15.88;5.85;;;10.90;99.90;;;;;;6179777;23;20021;-83
2021/12/15 00:56:57;;;;;;;22.60;6.65;;;12.30;99.90;;;;;;6179941;23;20021;-83
2021/12/15 00:59:23;;;;;;;14.63;6.57;;;12.90;99.90;;;;;;6180048;23;20045;-83
2021/12/15 01:01:51;;;;;;;28.20;8.45;;;11.90;99.90;;;;;;6180004;23;20017;-83
2021/12/15 01:04:20;;;;;;;29.85;7.47;;;10.10;99.90;;;;;;6155121;23;20052;-83
2021/12/15 01:06:52;;;;;;;31.13;8.48;;;11.30;99.90;;;;;;6154182;23;20024;-83
2021/12/15 01:09:26;;;;;;;20.17;7.00;;;12.10;99.90;;;;;;6179813;23;20027;-84
2021/12/15 01:12:11;;;;;;;25.67;7.00;;;11.20;99.90;;;;;;6179549;23;20397;-83
2021/12/15 01:20:18;;;;;;;;;;;10.60;99.90;;;;;;6205265;23;20064;-83
2021/12/15 01:22:50;;;;;;;26.45;9.57;;;12.00;99.90;;;;;;6154023;23;19917;-83
2021/12/15 01:25:26;;;;;;;30.15;9.82;;;12.80;99.90;;;;;;6179518;23;20063;-83
2021/12/15 01:27:51;;;;;;;24.37;9.97;;;12.50;99.90;;;;;;6179711;23;20017;-84
2021/12/15 01:30:21;;;;;;;26.67;9.27;;;12.40;99.90;;;;;;6179201;23;20253;-83
2021/12/15 01:32:48;;;;;;;25.08;8.63;;;11.30;99.90;;;;;;6181540;23;20043;-83
2021/12/15 01:35:14;;;;;;;27.05;8.75;;;11.20;99.90;;;;;;6179904;23;20049;-83
2021/12/15 01:37:40;;;;;;;28.10;9.50;;;11.80;99.90;;;;;;6179521;23;20067;-83
2021/12/15 01:40:13;;;;;;;27.20;10.15;;;11.90;99.90;;;;;;6180066;23;20024;-83
2021/12/15 01:42:38;;;;;;;27.00;9.55;;;11.80;99.90;;;;;;6154769;23;20040;-83
2021/12/15 01:48:06;;;;;;;30.63;10.18;;;12.20;99.90;;;;;;6204539;23;20119;-83
2021/12/15 01:50:32;;;;;;;22.42;8.80;;;11.90;99.90;;;;;;6179617;23;20017;-83
2021/12/15 01:52:57;;;;;;;24.13;8.98;;;12.10;99.90;;;;;;6179203;23;20340;-84
2021/12/15 01:55:24;;;;;;;19.25;7.55;;;12.00;99.90;;;;;;6179405;23;20025;-83
2021/12/15 01:57:50;;;;;;;21.02;9.32;;;11.40;99.90;;;;;;6179307;23;20048;-83
2021/12/15 02:00:21;;;;;;;29.92;9.25;;;11.90;99.90;;;;;;6154813;23;20017;-83
2021/12/15 02:02:49;;;;;;;30.40;10.60;;;11.20;99.90;;;;;;6179301;23;20028;-83
2021/12/15 02:05:16;;;;;;;39.60;12.77;;;10.90;99.90;;;;;;6179277;23;20017;-83
2021/12/15 02:07:45;;;;;;;23.80;10.68;;;12.20;99.90;;;;;;6179257;23;20017;-83
2021/12/15 02:10:11;;;;;;;28.58;11.15;;;12.00;99.90;;;;;;6154521;23;20351;-83
2021/12/15 02:12:42;;;;;;;33.22;10.63;;;12.20;99.90;;;;;;6179206;23;20096;-83
2021/12/15 02:15:21;;;;;;;28.38;9.02;;;10.90;99.90;;;;;;6179258;23;20025;-83
2021/12/15 02:17:47;;;;;;;31.98;10.40;;;10.80;99.90;;;;;;6154696;23;20106;-83
2021/12/15 02:20:16;;;;;;;34.10;9.90;;;10.70;99.90;;;;;;6155932;23;20435;-83
2021/12/15 02:22:43;;;;;;;35.92;12.50;;;12.50;99.90;;;;;;6155594;23;20048;-84
2021/12/15 02:25:12;;;;;;;31.50;9.48;;;12.00;99.90;;;;;;6180540;23;20009;-83
2021/12/15 02:27:39;;;;;;;30.30;9.95;;;13.50;99.90;;;;;;6180492;23;20017;-83
2021/12/15 02:30:21;;;;;;;25.48;9.60;;;12.60;99.90;;;;;;6180518;23;20017;-83
2021/12/15 02:33:04;;;;;;;25.95;8.63;;;12.10;99.90;;;;;;6155860;23;20028;-83
2021/12/15 02:38:14;;;;;;;30.70;9.55;;;11.60;99.90;;;;;;6180490;23;20355;-83
2021/12/15 02:40:40;;;;;;;33.42;10.73;;;11.80;99.90;;;;;;6180709;23;20053;-83
2021/12/15 02:43:06;;;;;;;26.60;8.63;;;10.60;99.90;;;;;;6180936;23;20060;-84
2021/12/15 02:45:32;;;;;;;29.42;10.18;;;12.00;99.90;;;;;;6180496;23;20416;-83
2021/12/15 02:47:58;;;;;;;34.05;11.43;;;11.60;99.90;;;;;;6180569;23;20059;-83
2021/12/15 02:50:28;;;;;;;26.02;9.07;;;12.00;99.90;;;;;;6180622;23;20017;-83
2021/12/15 02:52:58;;;;;;;25.55;9.27;;;12.90;99.90;;;;;;6180458;23;20024;-83
2021/12/15 02:55:23;;;;;;;28.27;9.75;;;11.70;99.90;;;;;;6155522;23;20459;-83
2021/12/15 02:57:49;;;;;;;31.17;10.07;;;11.60;99.90;;;;;;6180604;23;20032;-83
2021/12/15 03:00:21;;;;;;;29.15;8.60;;;11.00;99.90;;;;;;6182401;23;20088;-83
2021/12/15 03:05:43;;;;;;;25.42;9.00;;;11.20;99.90;;;;;;6205271;23;20064;-84
2021/12/15 03:08:15;;;;;;;20.90;8.90;;;12.40;99.90;;;;;;6180506;23;20084;-83
2021/12/15 03:16:15;;;;;;;20.55;7.22;;;11.90;99.90;;;;;;6182194;23;20376;-83
2021/12/15 03:18:41;;;;;;;21.83;6.72;;;10.60;99.90;;;;;;6181546;22;20013;-83
2021/12/15 03:21:15;;;;;;;21.70;7.65;;;10.60;99.90;;;;;;6180391;23;20032;-84
2021/12/15 03:23:51;;;;;;;19.00;6.88;;;10.70;99.90;;;;;;6155087;23;20407;-83
2021/12/15 03:26:19;;;;;;;;;;;11.30;99.90;;;;;;6155661;23;20018;-84
2021/12/15 03:34:38;;;;;;;17.95;6.47;;;11.90;99.90;;;;;;6205300;23;20082;-83
2021/12/15 03:37:21;;;;;;;16.92;5.95;;;11.50;99.90;;;;;;6155903;23;20035;-83
2021/12/15 03:39:47;;;;;;;17.80;6.00;;;11.80;99.90;;;;;;6180351;23;20021;-83
2021/12/15 03:42:18;;;;;;;20.55;6.13;;;10.80;99.90;;;;;;6180446;23;20039;-83
2021/12/15 03:44:46;;;;;;;24.55;6.28;;;12.40;99.90;;;;;;6180134;23;20013;-83
2021/12/15 03:47:16;;;;;;;28.88;6.90;;;12.80;99.90;;;;;;6155422;23;20017;-83
2021/12/15 03:49:42;;;;;;;21.98;6.50;;;12.00;99.90;;;;;;6155386;23;20063;-83
2021/12/15 03:52:11;;;;;;;18.17;4.97;;;12.50;99.90;;;;;;6180581;23;20067;-83
2021/12/15 03:54:36;;;;;;;20.40;5.43;;;11.40;99.90;;;;;;6180627;23;20038;-83
2021/12/15 03:57:03;;;;;;;13.25;4.25;;;11.40;99.90;;;;;;6155529;23;20013;-83
2021/12/15 03:59:29;;;;;;;18.88;5.47;;;11.50;99.90;;;;;;6180218;23;20009;-83
2021/12/15 04:01:56;;;;;;;24.58;5.50;;;11.70;99.90;;;;;;6180253;22;20017;-83
2021/12/15 04:04:22;;;;;;;14.65;5.18;;;11.60;99.90;;;;;;6155561;23;20093;-83
2021/12/15 04:06:48;;;;;;;22.42;5.47;;;11.30;99.90;;;;;;6180056;23;20320;-84
2021/12/15 04:09:15;;;;;;;25.63;5.72;;;11.30;99.90;;;;;;6182152;23;20024;-83
2021/12/15 04:11:42;;;;;;;18.10;4.38;;;12.00;99.90;;;;;;6180584;23;20025;-83
2021/12/15 04:14:19;;;;;;;23.80;4.82;;;11.80;99.90;;;;;;6180198;23;20020;-83
2021/12/15 04:16:58;;;;;;;23.05;5.03;;;10.90;99.90;;;;;;6180207;23;20028;-83
2021/12/15 04:19:24;;;;;;;30.42;6.00;;;12.20;99.90;;;;;;6180104;23;20013;-83
2021/12/15 04:21:50;;;;;;;22.05;5.35;;;13.40;99.90;;;;;;6155400;23;20017;-83
2021/12/15 04:24:18;;;;;;;12.05;4.88;;;10.90;99.90;;;;;;6173356;23;20024;-83
2021/12/15 04:26:46;;;;;;;20.50;5.90;;;12.40;99.90;;;;;;6180036;22;20320;-83
2021/12/15 04:29:12;;;;;;;19.15;6.13;;;12.10;99.90;;;;;;6180144;23;20057;-83
2021/12/15 04:31:41;;;;;;;26.40;6.80;;;12.10;99.90;;;;;;6180166;23;20070;-83
2021/12/15 04:34:10;;;;;;;15.77;4.80;;;11.70;99.90;;;;;;6180172;23;20104;-83
2021/12/15 04:36:40;;;;;;;18.35;5.28;;;12.90;99.90;;;;;;6180089;23;20021;-83
2021/12/15 04:39:09;;;;;;;25.00;6.28;;;11.70;99.90;;;;;;6180087;23;20414;-83
2021/12/15 04:41:35;;;;;;;27.50;7.15;;;12.60;99.90;;;;;;6180072;23;20347;-83
2021/12/15 04:44:09;;;;;;;22.05;5.93;;;11.60;99.90;;;;;;6179913;23;20014;-84
2021/12/15 04:46:36;;;;;;;20.63;5.90;;;11.10;99.90;;;;;;6154877;23;20013;-84
2021/12/15 04:49:07;;;;;;;15.10;4.88;;;12.00;99.90;;;;;;6179957;23;20017;-83
2021/12/15 04:51:33;;;;;;;21.63;6.85;;;11.70;99.90;;;;;;6179958;23;20074;-83
2021/12/15 04:53:59;;;;;;;24.85;6.18;;;11.00;99.90;;;;;;6155088;23;20021;-84
2021/12/15 04:56:25;;;;;;;20.38;5.07;;;10.90;99.90;;;;;;6179894;23;20030;-83
2021/12/15 04:58:54;;;;;;;14.60;4.97;;;12.10;99.90;;;;;;6179955;23;20352;-83
2021/12/15 05:01:22;;;;;;;18.50;4.85;;;12.70;99.90;;;;;;6179972;23;20036;-83
2021/12/15 05:03:47;;;;;;;27.67;6.25;;;10.40;99.90;;;;;;6179864;23;20113;-84
2021/12/15 05:06:13;;;;;;;28.40;7.05;;;11.20;99.90;;;;;;6179829;23;20021;-84
2021/12/15 05:08:40;;;;;;;30.20;6.72;;;11.00;99.90;;;;;;6155272;23;20014;-83
2021/12/15 05:11:07;;;;;;;34.20;5.65;;;11.00;99.90;;;;;;6179557;23;20074;-84
2021/12/15 05:13:34;;;;;;;25.00;7.28;;;10.80;99.90;;;;;;6179519;23;20021;-83
2021/12/15 05:16:02;;;;;;;20.92;6.90;;;12.10;99.90;;;;;;6179845;23;20017;-83
2021/12/15 05:18:28;;;;;;;25.45;6.18;;;11.10;99.90;;;;;;6179511;23;20070;-83
2021/12/15 05:20:54;;;;;;;35.28;6.80;;;12.20;99.90;;;;;;6179604;23;20009;-83
2021/12/15 05:23:21;;;;;;;31.10;6.38;;;12.40;99.90;;;;;;6178741;22;20435;-83
2021/12/15 05:25:48;;;;;;;25.40;6.60;;;11.30;99.90;;;;;;6179381;23;20021;-82
2021/12/15 05:28:14;;;;;;;28.35;6.30;;;12.30;99.90;;;;;;6179715;23;20021;-83
2021/12/15 05:30:41;;;;;;;29.95;7.90;;;11.70;99.90;;;;;;6179206;23;20025;-83
2021/12/15 05:33:06;;;;;;;25.83;6.47;;;11.90;99.90;;;;;;6179709;23;20024;-83
2021/12/15 05:35:34;;;;;;;14.63;6.43;;;11.10;99.90;;;;;;6179552;23;20017;-83
2021/12/15 05:38:01;;;;;;;30.83;7.30;;;11.60;99.90;;;;;;6179616;23;20024;-83
2021/12/15 05:40:29;;;;;;;20.15;6.63;;;11.00;99.90;;;;;;6179921;23;20032;-84
2021/12/15 05:42:56;;;;;;;24.35;5.40;;;10.90;99.90;;;;;;6154783;23;20017;-85
2021/12/15 05:45:26;;;;;;;19.00;6.25;;;11.80;99.90;;;;;;6180220;23;20013;-84
2021/12/15 05:47:53;;;;;;;25.42;7.85;;;11.90;99.90;;;;;;6179769;23;20056;-84
2021/12/15 05:50:20;;;;;;;23.45;7.28;;;12.00;99.90;;;;;;6179522;23;20047;-84
2021/12/15 05:52:46;;;;;;;25.42;6.95;;;11.20;99.90;;;;;;6179037;23;20568;-84
2021/12/15 05:55:14;;;;;;;21.50;6.18;;;12.20;99.90;;;;;;6155826;23;20052;-85
2021/12/15 05:57:39;;;;;;;21.95;6.68;;;12.20;99.90;;;;;;6156198;23;20017;-84
2021/12/15 06:00:09;;;;;;;21.35;5.90;;;13.00;99.90;;;;;;6155805;23;20073;-84
2021/12/15 06:02:35;;;;;;;19.83;5.65;;;11.80;99.90;;;;;;6180928;23;20443;-84
2021/12/15 06:05:01;;;;;;;23.38;6.03;;;11.60;99.90;;;;;;6156352;23;20081;-84
2021/12/15 06:07:27;;;;;;;18.58;5.20;;;11.90;99.90;;;;;;6180649;23;20017;-84
2021/12/15 06:09:53;;;;;;;23.77;6.45;;;12.10;99.90;;;;;;6156940;23;20339;-84
2021/12/15 06:12:18;;;;;;;22.25;5.47;;;11.00;99.90;;;;;;6181700;23;20021;-84
2021/12/15 06:14:44;;;;;;;21.00;5.82;;;12.30;99.90;;;;;;6180797;23;20067;-84
2021/12/15 06:17:11;;;;;;;17.13;4.88;;;10.90;99.90;;;;;;6180679;23;20013;-85
2021/12/15 06:19:38;;;;;;;18.02;6.53;;;12.60;99.90;;;;;;6155851;23;20048;-85
2021/12/15 06:22:05;;;;;;;29.08;7.65;;;12.40;99.90;;;;;;6180567;23;20100;-84
2021/12/15 06:24:32;;;;;;;21.50;5.97;;;11.30;99.90;;;;;;6155449;23;20017;-84
2021/12/15 06:27:04;;;;;;;14.77;4.32;;;11.40;99.90;;;;;;6180413;22;20025;-84
2021/12/15 06:29:29;;;;;;;32.25;5.85;;;12.40;99.90;;;;;;6180570;23;20709;-84
2021/12/15 06:31:56;;;;;;;22.25;5.47;;;12.00;99.90;;;;;;6180899;22;20020;-84
2021/12/15 06:34:22;;;;;;;15.63;4.72;;;10.80;99.90;;;;;;6155859;23;20055;-84
2021/12/15 06:36:48;;;;;;;19.30;5.25;;;11.40;99.90;;;;;;6155788;23;20459;-84
2021/12/15 06:39:14;;;;;;;32.42;6.72;;;11.30;99.90;;;;;;6180452;23;20020;-84
2021/12/15 06:41:40;;;;;;;20.95;6.20;;;10.50;99.90;;;;;;6180608;23;20016;-84
2021/12/15 06:44:07;;;;;;;28.88;6.47;;;10.40;99.90;;;;;;6155734;23;20017;-85
2021/12/15 06:57:33;;;;;;;22.42;4.78;;;11.50;99.90;;;;;;6205241;23;20021;-85
2021/12/15 07:00:11;;;;;;;13.88;4.68;;;11.50;99.90;;;;;;6180250;23;20021;-85
2021/12/15 07:02:38;;;;;;;18.77;4.65;;;12.00;99.90;;;;;;6180435;23;20181;-84
2021/12/15 07:05:07;;;;;;;20.13;4.43;;;10.70;99.90;;;;;;6154855;23;20021;-85
2021/12/15 07:07:35;;;;;;;17.80;4.57;;;11.30;99.90;;;;;;6155593;23;20028;-84
2021/12/15 07:10:02;;;;;;;19.92;4.63;;;10.60;99.90;;;;;;6155715;23;20039;-84
2021/12/15 07:12:28;;;;;;;25.67;5.90;;;10.60;99.90;;;;;;6180345;23;20048;-85
2021/12/15 07:14:54;;;;;;;11.38;4.40;;;10.70;99.90;;;;;;6155700;23;20021;-85
2021/12/15 07:17:23;;;;;;;27.38;5.20;;;11.50;99.90;;;;;;6155420;23;20143;-83
2021/12/15 07:20:07;;;;;;;18.48;5.00;;;11.20;99.90;;;;;;6154962;23;20355;-82
2021/12/15 07:22:43;;;;;;;14.77;4.43;;;11.70;99.90;;;;;;6178371;22;20135;-81
2021/12/15 07:25:10;;;;;;;;;;;11.40;99.90;;;;;;6173903;23;20013;-81
2021/12/15 07:27:37;;;;;;;12.63;4.00;;;11.40;99.90;;;;;;6179007;23;19945;-79
2021/12/15 07:30:04;;;;;;;13.48;4.15;;;11.30;99.90;;;;;;6154816;23;20358;-80
2021/12/15 07:32:30;;;;;;;15.82;3.30;;;10.70;99.90;;;;;;6155157;23;20017;-81
2021/12/15 07:34:56;;;;;;;12.50;3.95;;;10.50;99.90;;;;;;6155141;23;20108;-79
2021/12/15 07:37:21;;;;;;;27.52;5.38;;;10.60;99.90;;;;;;6154856;23;20432;-79
2021/12/15 07:39:57;;;;;;;19.73;4.65;;;10.00;99.90;;;;;;6154486;23;20025;-80
2021/12/15 07:42:31;;;;;;;17.05;4.38;;;10.20;99.90;;;;;;6180821;23;20021;-79
2021/12/15 07:44:57;;;;;;;16.83;4.45;;;10.90;99.90;;;;;;6178884;23;20017;-79
2021/12/15 07:47:22;;;;;;;21.25;5.15;;;10.70;99.90;;;;;;6179504;23;20451;-80
2021/12/15 07:49:48;;;;;;;20.02;5.28;;;10.40;99.90;;;;;;6178950;23;20032;-81
2021/12/15 07:52:14;;;;;;;20.70;5.07;;;11.30;99.90;;;;;;6154263;23;20026;-79
2021/12/15 07:54:40;;;;;;;16.65;4.47;;;10.90;99.90;;;;;;6177216;23;20048;-81
2021/12/15 07:57:10;;;;;;;7.57;3.53;;;11.30;99.90;;;;;;6179073;23;20025;-81
2021/12/15 07:59:36;;;;;;;16.52;4.32;;;10.70;99.90;;;;;;6179107;23;20013;-81
2021/12/15 08:02:03;;;;;;;16.63;4.07;;;11.10;99.90;;;;;;6179390;23;20021;-80
2021/12/15 08:04:29;;;;;;;18.08;5.43;;;10.40;99.90;;;;;;6154738;23;20351;-80
2021/12/15 08:06:55;;;;;;;8.18;2.28;;;10.30;99.90;;;;;;6179002;23;20017;-81
2021/12/15 08:09:22;;;;;;;15.20;3.25;;;11.70;99.90;;;;;;6179343;23;20100;-81
2021/12/15 08:11:48;;;;;;;14.85;2.95;;;11.30;99.90;;;;;;6179361;23;20057;-81
2021/12/15 08:14:15;;;;;;;13.57;3.53;;;9.90;99.90;;;;;;6179107;23;20025;-81
2021/12/15 08:16:41;;;;;;;7.78;2.60;;;10.20;99.90;;;;;;6179089;22;20374;-80
2021/12/15 08:19:08;;;;;;;14.30;3.63;;;10.40;99.90;;;;;;6154126;23;20036;-81
2021/12/15 08:21:34;;;;;;;22.38;3.53;;;11.30;99.90;;;;;;6154899;23;20024;-81
2021/12/15 08:24:00;;;;;;;15.15;3.30;;;9.90;99.90;;;;;;6179456;23;20021;-82
2021/12/15 08:26:26;;;;;;;13.95;3.40;;;10.10;99.90;;;;;;6179516;23;20121;-82
2021/12/15 08:28:52;;;;;;;9.95;2.60;;;10.70;99.90;;;;;;6179450;23;20020;-81
2021/12/15 08:31:19;;;;;;;13.80;3.30;;;11.80;99.90;;;;;;6179835;23;20024;-82
2021/12/15 08:33:45;;;;;;;10.40;3.63;;;10.20;99.90;;;;;;6178858;23;20017;-80
2021/12/15 08:36:13;;;;;;;7.25;2.47;;;11.30;99.90;;;;;;6178814;23;20032;-79
2021/12/15 08:38:41;;;;;;;11.73;3.35;;;9.70;99.90;;;;;;6178661;23;20017;-81
2021/12/15 08:41:12;;;;;;;18.77;5.05;;;10.50;99.90;;;;;;6179345;23;20074;-80
2021/12/15 08:43:38;;;;;;;10.75;2.95;;;10.40;99.90;;;;;;6178838;23;20023;-79
2021/12/15 08:46:09;;;;;;;13.98;3.97;;;10.70;99.90;;;;;;6179541;23;20013;-82
2021/12/15 08:48:37;;;;;;;7.88;2.67;;;10.10;99.90;;;;;;6179352;23;20024;-79
2021/12/15 08:51:04;;;;;;;10.98;3.63;;;11.30;99.90;;;;;;6153972;23;20017;-80
2021/12/15 08:53:30;;;;;;;8.80;3.08;;;10.50;99.90;;;;;;6178866;23;20021;-80
2021/12/15 08:55:56;;;;;;;14.82;3.60;;;11.90;99.90;;;;;;6154091;23;20009;-81
2021/12/15 08:58:22;;;;;;;8.63;2.83;;;10.60;99.90;;;;;;6178940;22;20024;-80
2021/12/15 09:00:51;;;;;;;18.17;3.03;;;10.60;99.90;;;;;;6178977;23;20076;-80
2021/12/15 09:03:19;;;;;;;7.63;2.33;;;10.50;99.90;;;;;;6154768;23;20013;-81
2021/12/15 09:05:47;;;;;;;7.88;2.75;;;10.50;99.90;;;;;;6179047;23;20394;-81
2021/12/15 09:08:13;;;;;;;6.60;2.80;;;11.30;99.90;;;;;;6178835;23;20078;-81
2021/12/15 09:10:43;;;;;;;12.50;2.97;;;10.70;99.90;;;;;;6179088;23;20013;-82
2021/12/15 09:13:09;;;;;;;9.35;2.83;;;11.20;99.90;;;;;;6179378;23;20320;-82
2021/12/15 09:15:36;;;;;;;10.98;3.03;;;10.60;99.90;;;;;;6179189;23;20017;-81
2021/12/15 09:18:02;;;;;;;8.32;2.70;;;10.60;99.90;;;;;;6178756;23;20053;-82
2021/12/15 09:20:32;;;;;;;13.30;3.20;;;10.60;99.90;;;;;;6179286;23;20059;-80
2021/12/15 09:23:01;;;;;;;14.60;3.67;;;10.70;99.90;;;;;;6155830;23;20021;-82
2021/12/15 09:25:27;;;;;;;10.63;2.67;;;11.00;99.90;;;;;;6153859;23;20024;-80
2021/12/15 09:27:53;;;;;;;12.18;2.95;;;11.30;99.90;;;;;;6180759;22;20096;-79
2021/12/15 09:30:20;;;;;;;12.93;3.10;;;11.30;99.90;;;;;;6180092;23;20063;-80
2021/12/15 09:32:47;;;;;;;10.95;2.78;;;11.70;99.90;;;;;;6180256;23;20028;-80
2021/12/15 09:35:15;;;;;;;15.25;3.08;;;11.60;99.90;;;;;;6154879;23;20025;-80
2021/12/15 09:37:42;;;;;;;15.63;3.30;;;11.40;99.90;;;;;;6179933;23;20017;-79
2021/12/15 09:40:11;;;;;;;11.10;3.22;;;11.30;99.90;;;;;;6179054;23;20435;-80
2021/12/15 09:42:39;;;;;;;10.30;2.72;;;11.10;99.90;;;;;;6179827;23;20017;-80
2021/12/15 09:45:31;;;;;;;10.55;3.03;;;11.00;99.90;;;;;;6180088;23;20019;-79
2021/12/15 09:56:17;;;;;;;10.57;3.08;;;10.90;99.90;;;;;;6179842;23;20052;-80
2021/12/15 09:56:36;;;;;;;15.77;2.67;;;10.40;99.90;;;;;;6312133;22;20025;-81
2021/12/15 10:04:35;;;;;;;10.20;2.83;;;10.30;99.90;;;;;;6180210;22;20059;-79
2021/12/15 10:18:29;;;;;;;7.15;2.60;;;10.60;99.90;;;;;;6205238;23;20025;-80
2021/12/15 10:20:56;;;;;;;9.70;2.40;;;11.10;99.90;;;;;;6179535;23;20025;-79
2021/12/15 10:23:29;;;;;;;17.83;3.13;;;12.30;99.90;;;;;;6179279;23;20017;-82
2021/12/15 10:25:57;;;;;;;12.80;2.70;;;11.30;99.90;;;;;;6178299;23;20017;-80
2021/12/15 10:28:26;;;;;;;16.15;3.63;;;11.70;99.90;;;;;;6153821;23;20024;-81
2021/12/15 10:30:56;;;;;;;16.20;3.13;;;11.20;99.90;;;;;;6153552;23;20187;-80
2021/12/15 10:33:28;;;;;;;15.05;3.65;;;11.10;99.90;;;;;;6178472;23;20478;-80
2021/12/15 10:36:01;;;;;;;11.80;3.00;;;11.00;99.90;;;;;;6153637;22;20214;-80
2021/12/15 10:38:31;;;;;;;20.73;4.30;;;12.70;99.90;;;;;;6178040;23;20029;-79
2021/12/15 10:41:15;;;;;;;14.65;3.20;;;12.60;99.90;;;;;;6155145;23;20086;-80
2021/12/15 10:43:51;;;;;;;14.02;4.40;;;10.80;99.90;;;;;;6180005;23;20017;-80
2021/12/15 10:46:19;;;;;;;22.33;3.95;;;11.00;99.90;;;;;;6180000;23;20478;-79
2021/12/15 10:48:49;;;;;;;13.60;3.47;;;11.00;99.90;;;;;;6154703;23;20088;-81
2021/12/15 10:51:28;;;;;;;13.88;3.85;;;11.20;99.90;;;;;;6179785;23;20096;-80
2021/12/15 10:54:04;;;;;;;17.27;3.85;;;11.40;99.90;;;;;;6179695;23;20085;-80
2021/12/15 10:56:35;;;;;;;11.02;3.20;;;11.40;99.90;;;;;;6178253;23;20021;-81
2021/12/15 10:59:07;;;;;;;15.55;3.45;;;11.40;99.90;;;;;;6178673;23;20036;-81
2021/12/15 11:01:39;;;;;;;9.15;2.83;;;11.40;99.90;;;;;;6178453;23;20021;-82
2021/12/15 11:04:20;;;;;;;12.48;2.88;;;11.40;99.90;;;;;;6178307;23;20025;-81
2021/12/15 11:07:00;;;;;;;15.93;3.58;;;11.50;99.90;;;;;;6178637;23;20017;-80
2021/12/15 11:09:25;;;;;;;17.67;2.90;;;11.70;99.90;;;;;;6179540;23;20078;-79
2021/12/15 11:12:08;;;;;;;10.75;2.63;;;12.30;99.90;;;;;;6179766;23;20017;-80
2021/12/15 11:14:37;;;;;;;12.38;2.83;;;11.70;99.90;;;;;;6179759;23;20025;-80
2021/12/15 11:17:12;;;;;;;10.75;2.55;;;11.80;99.90;;;;;;6179726;23;20058;-79
2021/12/15 11:19:41;;;;;;;9.82;2.40;;;11.70;99.90;;;;;;6154606;23;20017;-79
2021/12/15 11:22:38;;;;;;;12.45;2.13;;;11.60;99.90;;;;;;6179747;23;20028;-79
2021/12/15 11:25:07;;;;;;;;;;;11.60;99.90;;;;;;6179526;23;20028;-79
2021/12/15 11:27:33;;;;;;;5.55;1.70;;;11.40;99.90;;;;;;6311381;22;19917;-80
2021/12/15 11:29:59;;;;;;;5.80;2.13;;;12.00;99.90;;;;;;6179503;23;20051;-80
2021/12/15 11:32:40;;;;;;;5.68;2.03;;;11.30;99.90;;;;;;6180023;23;20021;-79
2021/12/15 11:35:10;;;;;;;11.50;2.22;;;11.30;99.90;;;;;;6155474;23;20143;-81
2021/12/15 11:37:45;;;;;;;2.80;1.58;;;11.30;99.90;;;;;;6154376;23;20142;-80
2021/12/15 11:40:11;;;;;;;9.35;2.50;;;12.40;99.90;;;;;;6180637;23;20016;-80
2021/12/15 11:42:41;;;;;;;7.40;1.88;;;11.40;99.90;;;;;;6179429;23;20078;-78
2021/12/15 11:45:10;;;;;;;7.35;2.20;;;11.60;99.90;;;;;;6180222;23;20112;-78
2021/12/15 11:47:37;;;;;;;8.40;2.30;;;11.30;99.90;;;;;;6179611;23;20021;-79
2021/12/15 11:50:15;;;;;;;10.13;2.25;;;11.30;99.90;;;;;;6178162;23;20430;-79
2021/12/15 11:52:44;;;;;;;5.82;2.05;;;11.40;99.90;;;;;;6177700;23;20401;-79
2021/12/15 11:55:24;;;;;;;5.20;2.00;;;11.20;99.90;;;;;;6153356;23;20017;-79
2021/12/15 11:57:50;;;;;;;6.22;2.38;;;11.10;99.90;;;;;;6177897;23;20031;-79
2021/12/15 12:00:20;;;;;;;11.05;2.42;;;11.20;99.90;;;;;;6153218;23;20463;-79
2021/12/15 12:02:52;;;;;;;7.40;1.92;;;11.20;99.90;;;;;;6178550;23;20180;-79
2021/12/15 12:05:23;;;;;;;7.40;1.85;;;11.30;99.90;;;;;;6178567;23;20013;-79
2021/12/15 12:07:53;;;;;;;6.55;2.08;;;11.40;99.90;;;;;;6177672;23;20021;-79
2021/12/15 12:10:32;;;;;;;6.70;1.95;;;11.30;99.90;;;;;;6178055;23;20021;-78
2021/12/15 12:13:05;;;;;;;8.95;2.20;;;11.30;99.90;;;;;;6178205;23;20084;-80
2021/12/15 12:15:33;;;;;;;6.97;2.00;;;11.10;99.90;;;;;;6179756;23;20096;-81
2021/12/15 12:18:05;;;;;;;6.18;1.98;;;10.80;99.90;;;;;;6179330;23;20088;-81
2021/12/15 12:20:35;;;;;;;11.52;3.10;;;10.80;99.90;;;;;;6154971;23;20341;-81
2021/12/15 12:23:03;;;;;;;11.80;2.40;;;10.80;99.90;;;;;;6179317;23;20088;-80
2021/12/15 12:25:35;;;;;;;8.30;2.33;;;10.60;99.90;;;;;;6179113;23;20017;-81
2021/12/15 12:28:03;;;;;;;12.30;2.17;;;10.70;99.90;;;;;;6154459;23;20021;-80
2021/12/15 12:30:34;;;;;;;9.95;2.20;;;10.70;99.90;;;;;;6178185;23;20021;-81
2021/12/15 12:33:01;;;;;;;6.22;2.00;;;10.80;99.90;;;;;;6154499;23;20492;-81
2021/12/15 12:35:30;;;;;;;8.35;2.10;;;10.80;99.90;;;;;;6179530;23;20017;-79
2021/12/15 12:38:00;;;;;;;8.15;2.28;;;10.90;99.90;;;;;;6179466;23;20013;-82
2021/12/15 12:40:31;;;;;;;4.35;1.58;;;11.50;99.90;;;;;;6179271;23;20028;-79
2021/12/15 12:42:57;;;;;;;9.48;2.25;;;10.80;99.90;;;;;;6179601;23;20052;-79
2021/12/15 12:45:39;;;;;;;5.63;1.83;;;11.50;99.90;;;;;;6179300;23;20029;-78
2021/12/15 12:57:57;;;;;;;11.10;2.22;;;10.60;99.90;;;;;;6204421;23;20119;-78
2021/12/15 12:59:30;;;;;;;11.43;1.85;;;10.70;99.90;;;;;;6203876;23;20129;-81
2021/12/15 13:01:57;;;;;;;2.80;1.45;;;10.70;99.90;;;;;;6178652;23;20049;-79
2021/12/15 13:04:36;;;;;;;6.43;1.75;;;10.70;99.90;;;;;;6179509;23;20040;-82
2021/12/15 13:07:02;;;;;;;5.45;2.00;;;10.60;99.90;;;;;;6179660;23;20017;-80
2021/12/15 13:09:43;;;;;;;7.85;1.60;;;10.70;99.90;;;;;;6179447;23;20055;-81
2021/12/15 13:12:21;;;;;;;9.93;2.05;;;11.00;99.90;;;;;;6179290;22;20759;-81
2021/12/15 13:14:47;;;;;;;9.13;1.65;;;11.20;99.90;;;;;;6179300;23;20017;-81
2021/12/15 13:17:19;;;;;;;6.60;1.70;;;10.80;99.90;;;;;;6179136;23;20388;-81
2021/12/15 13:19:45;;;;;;;6.30;1.80;;;10.50;99.90;;;;;;6154466;23;20150;-80
2021/12/15 13:30:41;;;;;;;9.23;1.70;;;10.30;99.90;;;;;;6204112;23;20028;-82
2021/12/15 13:33:13;;;;;;;7.95;1.63;;;11.10;99.90;;;;;;6154487;23;20025;-81
2021/12/15 13:35:48;;;;;;;7.20;2.22;;;11.50;99.90;;;;;;6179227;23;20044;-80
2021/12/15 13:38:19;;;;;;;5.85;1.85;;;10.80;99.90;;;;;;6178852;23;20397;-80
2021/12/15 13:40:56;;;;;;;4.80;1.60;;;11.20;99.90;;;;;;6178652;23;20052;-80
2021/12/15 13:43:37;;;;;;;9.30;1.83;;;10.90;99.90;;;;;;6154003;23;20025;-80
2021/12/15 13:46:06;;;;;;;4.30;1.70;;;10.80;99.90;;;;;;6179164;23;20017;-80
2021/12/15 13:48:58;;;;;;;9.48;2.03;;;10.90;99.90;;;;;;6178870;23;20017;-80
2021/12/15 13:52:01;;;;;;;2.97;1.45;;;10.80;99.90;;;;;;6179120;23;20020;-81
2021/12/15 13:54:33;;;;;;;5.68;1.88;;;10.80;99.90;;;;;;6179055;22;20335;-82
2021/12/15 13:57:03;;;;;;;6.10;1.88;;;10.90;99.90;;;;;;6153680;23;20066;-82
2021/12/15 13:59:32;;;;;;;6.32;1.90;;;10.90;99.90;;;;;;6154272;23;20351;-81
2021/12/15 14:02:21;;;;;;;5.88;1.70;;;11.10;99.90;;;;;;6179056;23;20075;-82
2021/12/15 14:04:51;;;;;;;9.88;2.08;;;10.90;99.90;;;;;;6178894;23;20017;-81
2021/12/15 14:07:41;;;;;;;7.85;1.80;;;10.90;99.90;;;;;;6178609;23;20024;-80